sensor_id;sensor_type;location;lat;lon;timestamp;P1;durP1;ratioP1;P2;durP2;ratioP2
19905;SDS011;10115;50.906;4.438;2024-03-08T00:02:24;23.40;;;21.13;;
19905;SDS011;10115;50.906;4.438;2024-03-08T00:04:49;24.10;;;21.90;;
19905;SDS011;10115;50.906;4.438;2024-03-08T00:07:15;24.00;;;21.90;;
19905;SDS011;10115;50.906;4.438;2024-03-08T00:09:41;23.17;;;21.00;;
19905;SDS011;10115;50.906;4.438;2024-03-08T00:12:07;23.37;;;21.23;;
19905;SDS011;10115;50.906;4.438;2024-03-08T00:14:32;24.27;;;22.27;;
19905;SDS011;10115;50.906;4.438;2024-03-08T00:16:58;21.93;;;20.47;;
19905;SDS011;10115;50.906;4.438;2024-03-08T00:19:24;21.73;;;19.77;;
19905;SDS011;10115;50.906;4.438;2024-03-08T00:21:49;22.17;;;20.23;;
19905;SDS011;10115;50.906;4.438;2024-03-08T00:24:15;23.37;;;21.57;;
19905;SDS011;10115;50.906;4.438;2024-03-08T00:26:41;22.23;;;20.33;;
19905;SDS011;10115;50.906;4.438;2024-03-08T00:29:09;22.17;;;20.27;;
19905;SDS011;10115;50.906;4.438;2024-03-08T00:31:35;25.23;;;22.73;;
19905;SDS011;10115;50.906;4.438;2024-03-08T00:34:00;24.93;;;22.37;;
19905;SDS011;10115;50.906;4.438;2024-03-08T00:36:26;23.20;;;21.17;;
19905;SDS011;10115;50.906;4.438;2024-03-08T00:38:52;23.93;;;22.03;;
19905;SDS011;10115;50.906;4.438;2024-03-08T00:41:17;24.10;;;22.00;;
19905;SDS011;10115;50.906;4.438;2024-03-08T00:43:43;25.30;;;22.60;;
19905;SDS011;10115;50.906;4.438;2024-03-08T00:46:09;24.30;;;22.30;;
19905;SDS011;10115;50.906;4.438;2024-03-08T00:48:34;24.93;;;22.60;;
19905;SDS011;10115;50.906;4.438;2024-03-08T00:51:01;26.47;;;24.07;;
19905;SDS011;10115;50.906;4.438;2024-03-08T00:53:27;29.40;;;23.57;;
19905;SDS011;10115;50.906;4.438;2024-03-08T00:55:52;23.77;;;21.60;;
19905;SDS011;10115;50.906;4.438;2024-03-08T00:58:20;24.90;;;22.77;;
19905;SDS011;10115;50.906;4.438;2024-03-08T01:00:46;24.47;;;21.97;;
19905;SDS011;10115;50.906;4.438;2024-03-08T01:03:11;26.73;;;22.73;;
19905;SDS011;10115;50.906;4.438;2024-03-08T01:05:38;28.87;;;23.83;;
19905;SDS011;10115;50.906;4.438;2024-03-08T01:08:04;24.63;;;22.43;;
19905;SDS011;10115;50.906;4.438;2024-03-08T01:10:30;25.13;;;22.53;;
19905;SDS011;10115;50.906;4.438;2024-03-08T01:12:56;23.97;;;21.73;;
19905;SDS011;10115;50.906;4.438;2024-03-08T01:15:24;24.37;;;22.13;;
19905;SDS011;10115;50.906;4.438;2024-03-08T01:17:50;26.60;;;24.23;;
19905;SDS011;10115;50.906;4.438;2024-03-08T01:20:17;22.50;;;20.67;;
19905;SDS011;10115;50.906;4.438;2024-03-08T01:22:42;24.20;;;22.30;;
19905;SDS011;10115;50.906;4.438;2024-03-08T01:25:08;25.70;;;23.57;;
19905;SDS011;10115;50.906;4.438;2024-03-08T01:27:34;25.50;;;23.43;;
19905;SDS011;10115;50.906;4.438;2024-03-08T01:30:00;26.17;;;23.63;;
19905;SDS011;10115;50.906;4.438;2024-03-08T01:32:26;29.33;;;26.10;;
19905;SDS011;10115;50.906;4.438;2024-03-08T01:34:52;24.60;;;22.60;;
19905;SDS011;10115;50.906;4.438;2024-03-08T01:37:18;25.60;;;23.30;;
19905;SDS011;10115;50.906;4.438;2024-03-08T01:39:45;22.17;;;20.60;;
19905;SDS011;10115;50.906;4.438;2024-03-08T01:42:10;25.77;;;23.10;;
19905;SDS011;10115;50.906;4.438;2024-03-08T01:44:38;25.87;;;23.23;;
19905;SDS011;10115;50.906;4.438;2024-03-08T01:47:04;24.47;;;22.10;;
19905;SDS011;10115;50.906;4.438;2024-03-08T01:49:30;25.33;;;22.67;;
19905;SDS011;10115;50.906;4.438;2024-03-08T01:51:56;26.10;;;23.60;;
19905;SDS011;10115;50.906;4.438;2024-03-08T01:54:22;27.87;;;24.33;;
19905;SDS011;10115;50.906;4.438;2024-03-08T01:56:49;27.97;;;25.03;;
19905;SDS011;10115;50.906;4.438;2024-03-08T01:59:15;25.90;;;23.70;;
19905;SDS011;10115;50.906;4.438;2024-03-08T02:01:41;27.50;;;24.43;;
19905;SDS011;10115;50.906;4.438;2024-03-08T02:04:08;25.57;;;23.03;;
19905;SDS011;10115;50.906;4.438;2024-03-08T02:06:34;26.47;;;24.23;;
19905;SDS011;10115;50.906;4.438;2024-03-08T02:09:00;25.27;;;22.90;;
19905;SDS011;10115;50.906;4.438;2024-03-08T02:11:33;26.17;;;24.00;;
19905;SDS011;10115;50.906;4.438;2024-03-08T02:13:59;42.73;;;27.47;;
19905;SDS011;10115;50.906;4.438;2024-03-08T02:16:25;24.80;;;22.57;;
19905;SDS011;10115;50.906;4.438;2024-03-08T02:18:51;25.50;;;23.63;;
19905;SDS011;10115;50.906;4.438;2024-03-08T02:21:17;24.50;;;22.23;;
19905;SDS011;10115;50.906;4.438;2024-03-08T02:23:43;27.50;;;24.93;;
19905;SDS011;10115;50.906;4.438;2024-03-08T02:26:09;25.87;;;23.80;;
19905;SDS011;10115;50.906;4.438;2024-03-08T02:28:35;28.17;;;25.43;;
19905;SDS011;10115;50.906;4.438;2024-03-08T02:31:01;28.93;;;26.17;;
19905;SDS011;10115;50.906;4.438;2024-03-08T02:33:27;26.07;;;23.83;;
19905;SDS011;10115;50.906;4.438;2024-03-08T02:35:54;25.97;;;23.57;;
19905;SDS011;10115;50.906;4.438;2024-03-08T02:38:21;28.07;;;25.47;;
19905;SDS011;10115;50.906;4.438;2024-03-08T02:40:50;28.43;;;25.47;;
19905;SDS011;10115;50.906;4.438;2024-03-08T02:43:17;29.03;;;26.47;;
19905;SDS011;10115;50.906;4.438;2024-03-08T02:45:44;27.57;;;25.00;;
19905;SDS011;10115;50.906;4.438;2024-03-08T02:48:10;26.93;;;24.53;;
19905;SDS011;10115;50.906;4.438;2024-03-08T02:50:37;26.10;;;23.73;;
19905;SDS011;10115;50.906;4.438;2024-03-08T02:53:05;27.30;;;24.93;;
19905;SDS011;10115;50.906;4.438;2024-03-08T02:55:31;27.50;;;25.30;;
19905;SDS011;10115;50.906;4.438;2024-03-08T02:58:00;25.23;;;22.87;;
19905;SDS011;10115;50.906;4.438;2024-03-08T03:00:28;26.97;;;24.70;;
19905;SDS011;10115;50.906;4.438;2024-03-08T03:02:55;34.90;;;26.00;;
19905;SDS011;10115;50.906;4.438;2024-03-08T03:05:21;27.27;;;24.87;;
19905;SDS011;10115;50.906;4.438;2024-03-08T03:07:48;28.93;;;25.97;;
19905;SDS011;10115;50.906;4.438;2024-03-08T03:10:14;25.90;;;23.80;;
19905;SDS011;10115;50.906;4.438;2024-03-08T03:12:42;26.40;;;24.20;;
19905;SDS011;10115;50.906;4.438;2024-03-08T03:15:08;23.70;;;21.90;;
19905;SDS011;10115;50.906;4.438;2024-03-08T03:17:35;27.50;;;25.30;;
19905;SDS011;10115;50.906;4.438;2024-03-08T03:20:01;28.57;;;25.83;;
19905;SDS011;10115;50.906;4.438;2024-03-08T03:22:34;25.80;;;23.47;;
19905;SDS011;10115;50.906;4.438;2024-03-08T03:25:00;25.83;;;23.73;;
19905;SDS011;10115;50.906;4.438;2024-03-08T03:27:25;26.07;;;23.83;;
19905;SDS011;10115;50.906;4.438;2024-03-08T03:29:51;28.67;;;26.13;;
19905;SDS011;10115;50.906;4.438;2024-03-08T03:32:17;25.07;;;22.90;;
19905;SDS011;10115;50.906;4.438;2024-03-08T03:34:43;25.07;;;22.93;;
19905;SDS011;10115;50.906;4.438;2024-03-08T03:37:09;31.37;;;28.23;;
19905;SDS011;10115;50.906;4.438;2024-03-08T03:39:39;27.93;;;25.40;;
19905;SDS011;10115;50.906;4.438;2024-03-08T03:42:16;30.37;;;22.93;;
19905;SDS011;10115;50.906;4.438;2024-03-08T03:44:46;26.37;;;24.13;;
19905;SDS011;10115;50.906;4.438;2024-03-08T03:47:13;29.07;;;26.33;;
19905;SDS011;10115;50.906;4.438;2024-03-08T03:49:43;27.13;;;24.67;;
19905;SDS011;10115;50.906;4.438;2024-03-08T03:52:10;26.20;;;24.00;;
19905;SDS011;10115;50.906;4.438;2024-03-08T03:54:36;25.80;;;23.90;;
19905;SDS011;10115;50.906;4.438;2024-03-08T03:57:02;31.20;;;28.17;;
19905;SDS011;10115;50.906;4.438;2024-03-08T03:59:28;28.70;;;26.33;;
19905;SDS011;10115;50.906;4.438;2024-03-08T04:01:54;27.30;;;24.70;;
19905;SDS011;10115;50.906;4.438;2024-03-08T04:04:20;27.20;;;24.80;;
19905;SDS011;10115;50.906;4.438;2024-03-08T04:06:46;24.43;;;22.40;;
19905;SDS011;10115;50.906;4.438;2024-03-08T04:09:12;26.93;;;24.77;;
19905;SDS011;10115;50.906;4.438;2024-03-08T04:11:38;29.97;;;25.10;;
19905;SDS011;10115;50.906;4.438;2024-03-08T04:14:04;26.57;;;24.37;;
19905;SDS011;10115;50.906;4.438;2024-03-08T04:16:30;25.20;;;23.07;;
19905;SDS011;10115;50.906;4.438;2024-03-08T04:18:56;27.53;;;25.20;;
19905;SDS011;10115;50.906;4.438;2024-03-08T04:21:24;27.67;;;25.17;;
19905;SDS011;10115;50.906;4.438;2024-03-08T04:23:49;28.20;;;25.33;;
19905;SDS011;10115;50.906;4.438;2024-03-08T04:26:15;27.80;;;25.10;;
19905;SDS011;10115;50.906;4.438;2024-03-08T04:28:41;28.20;;;25.73;;
19905;SDS011;10115;50.906;4.438;2024-03-08T04:31:06;30.03;;;26.00;;
19905;SDS011;10115;50.906;4.438;2024-03-08T04:33:32;29.30;;;26.40;;
19905;SDS011;10115;50.906;4.438;2024-03-08T04:36:00;27.20;;;25.10;;
19905;SDS011;10115;50.906;4.438;2024-03-08T04:38:29;27.27;;;24.70;;
19905;SDS011;10115;50.906;4.438;2024-03-08T04:40:55;23.73;;;22.03;;
19905;SDS011;10115;50.906;4.438;2024-03-08T04:43:24;26.67;;;24.17;;
19905;SDS011;10115;50.906;4.438;2024-03-08T04:45:51;29.20;;;26.50;;
19905;SDS011;10115;50.906;4.438;2024-03-08T04:48:18;30.67;;;27.77;;
19905;SDS011;10115;50.906;4.438;2024-03-08T04:50:45;26.90;;;24.60;;
19905;SDS011;10115;50.906;4.438;2024-03-08T04:53:11;27.43;;;24.93;;
19905;SDS011;10115;50.906;4.438;2024-03-08T04:55:37;27.60;;;25.33;;
19905;SDS011;10115;50.906;4.438;2024-03-08T04:58:03;27.50;;;25.20;;
19905;SDS011;10115;50.906;4.438;2024-03-08T05:00:31;28.53;;;25.57;;
19905;SDS011;10115;50.906;4.438;2024-03-08T05:02:57;28.07;;;25.67;;
19905;SDS011;10115;50.906;4.438;2024-03-08T05:05:23;27.57;;;25.13;;
19905;SDS011;10115;50.906;4.438;2024-03-08T05:07:50;32.43;;;26.37;;
19905;SDS011;10115;50.906;4.438;2024-03-08T05:10:15;29.37;;;26.60;;
19905;SDS011;10115;50.906;4.438;2024-03-08T05:12:43;27.07;;;24.30;;
19905;SDS011;10115;50.906;4.438;2024-03-08T05:15:09;25.90;;;23.70;;
19905;SDS011;10115;50.906;4.438;2024-03-08T05:17:34;29.07;;;26.20;;
19905;SDS011;10115;50.906;4.438;2024-03-08T05:20:00;26.73;;;24.33;;
19905;SDS011;10115;50.906;4.438;2024-03-08T05:22:26;28.20;;;25.67;;
19905;SDS011;10115;50.906;4.438;2024-03-08T05:24:53;25.93;;;23.23;;
19905;SDS011;10115;50.906;4.438;2024-03-08T05:27:18;27.70;;;25.23;;
19905;SDS011;10115;50.906;4.438;2024-03-08T05:29:44;28.33;;;25.93;;
19905;SDS011;10115;50.906;4.438;2024-03-08T05:32:11;28.70;;;26.13;;
19905;SDS011;10115;50.906;4.438;2024-03-08T05:34:37;23.50;;;21.47;;
19905;SDS011;10115;50.906;4.438;2024-03-08T05:37:03;26.10;;;24.00;;
19905;SDS011;10115;50.906;4.438;2024-03-08T05:39:29;30.13;;;27.17;;
19905;SDS011;10115;50.906;4.438;2024-03-08T05:41:55;28.17;;;25.30;;
19905;SDS011;10115;50.906;4.438;2024-03-08T05:44:21;29.97;;;27.17;;
19905;SDS011;10115;50.906;4.438;2024-03-08T05:46:46;27.97;;;25.07;;
19905;SDS011;10115;50.906;4.438;2024-03-08T05:49:12;31.67;;;26.03;;
19905;SDS011;10115;50.906;4.438;2024-03-08T05:51:39;30.23;;;27.37;;
19905;SDS011;10115;50.906;4.438;2024-03-08T05:54:09;28.80;;;25.97;;
19905;SDS011;10115;50.906;4.438;2024-03-08T05:56:35;25.77;;;23.50;;
19905;SDS011;10115;50.906;4.438;2024-03-08T05:59:02;33.47;;;27.03;;
19905;SDS011;10115;50.906;4.438;2024-03-08T06:01:28;25.00;;;22.87;;
19905;SDS011;10115;50.906;4.438;2024-03-08T06:03:56;26.30;;;23.57;;
19905;SDS011;10115;50.906;4.438;2024-03-08T06:06:25;29.47;;;26.83;;
19905;SDS011;10115;50.906;4.438;2024-03-08T06:08:51;29.90;;;27.20;;
19905;SDS011;10115;50.906;4.438;2024-03-08T06:11:18;28.03;;;25.53;;
19905;SDS011;10115;50.906;4.438;2024-03-08T06:13:45;26.83;;;24.33;;
19905;SDS011;10115;50.906;4.438;2024-03-08T06:16:11;29.67;;;26.83;;
19905;SDS011;10115;50.906;4.438;2024-03-08T06:18:37;30.47;;;27.90;;
19905;SDS011;10115;50.906;4.438;2024-03-08T06:21:04;29.60;;;26.73;;
19905;SDS011;10115;50.906;4.438;2024-03-08T06:23:34;28.33;;;25.33;;
19905;SDS011;10115;50.906;4.438;2024-03-08T06:26:06;27.07;;;24.70;;
19905;SDS011;10115;50.906;4.438;2024-03-08T06:28:32;30.33;;;27.83;;
19905;SDS011;10115;50.906;4.438;2024-03-08T06:30:59;28.70;;;26.07;;
19905;SDS011;10115;50.906;4.438;2024-03-08T06:33:26;29.33;;;26.40;;
19905;SDS011;10115;50.906;4.438;2024-03-08T06:35:52;27.03;;;24.43;;
19905;SDS011;10115;50.906;4.438;2024-03-08T06:38:22;29.07;;;26.30;;
19905;SDS011;10115;50.906;4.438;2024-03-08T06:40:50;26.73;;;24.47;;
19905;SDS011;10115;50.906;4.438;2024-03-08T06:43:17;26.33;;;23.87;;
19905;SDS011;10115;50.906;4.438;2024-03-08T06:45:43;25.23;;;22.63;;
19905;SDS011;10115;50.906;4.438;2024-03-08T06:48:19;29.97;;;27.00;;
19905;SDS011;10115;50.906;4.438;2024-03-08T06:50:45;28.67;;;26.00;;
19905;SDS011;10115;50.906;4.438;2024-03-08T06:53:15;35.13;;;29.50;;
19905;SDS011;10115;50.906;4.438;2024-03-08T06:55:42;27.87;;;25.30;;
19905;SDS011;10115;50.906;4.438;2024-03-08T06:58:09;28.73;;;25.93;;
19905;SDS011;10115;50.906;4.438;2024-03-08T07:00:35;28.70;;;26.23;;
19905;SDS011;10115;50.906;4.438;2024-03-08T07:03:02;26.97;;;22.70;;
19905;SDS011;10115;50.906;4.438;2024-03-08T07:05:28;25.73;;;23.37;;
19905;SDS011;10115;50.906;4.438;2024-03-08T07:07:55;26.57;;;24.20;;
19905;SDS011;10115;50.906;4.438;2024-03-08T07:10:21;28.83;;;26.20;;
19905;SDS011;10115;50.906;4.438;2024-03-08T07:12:49;28.93;;;25.87;;
19905;SDS011;10115;50.906;4.438;2024-03-08T07:15:15;27.07;;;24.37;;
19905;SDS011;10115;50.906;4.438;2024-03-08T07:17:44;27.87;;;25.47;;
19905;SDS011;10115;50.906;4.438;2024-03-08T07:20:13;29.90;;;26.07;;
19905;SDS011;10115;50.906;4.438;2024-03-08T07:22:43;25.97;;;23.90;;
19905;SDS011;10115;50.906;4.438;2024-03-08T07:25:12;33.43;;;24.93;;
19905;SDS011;10115;50.906;4.438;2024-03-08T07:27:49;26.93;;;24.67;;
19905;SDS011;10115;50.906;4.438;2024-03-08T07:30:19;25.73;;;23.37;;
19905;SDS011;10115;50.906;4.438;2024-03-08T07:33:08;29.40;;;23.73;;
19905;SDS011;10115;50.906;4.438;2024-03-08T07:35:37;27.20;;;24.60;;
19905;SDS011;10115;50.906;4.438;2024-03-08T07:38:12;31.80;;;28.83;;
19905;SDS011;10115;50.906;4.438;2024-03-08T07:40:38;28.27;;;25.13;;
19905;SDS011;10115;50.906;4.438;2024-03-08T07:43:14;23.07;;;21.37;;
19905;SDS011;10115;50.906;4.438;2024-03-08T07:45:39;29.70;;;25.60;;
19905;SDS011;10115;50.906;4.438;2024-03-08T07:48:06;29.90;;;27.30;;
19905;SDS011;10115;50.906;4.438;2024-03-08T07:50:37;28.07;;;25.10;;
19905;SDS011;10115;50.906;4.438;2024-03-08T07:53:04;28.10;;;25.77;;
19905;SDS011;10115;50.906;4.438;2024-03-08T07:55:32;28.57;;;25.63;;
19905;SDS011;10115;50.906;4.438;2024-03-08T07:57:58;27.37;;;25.03;;
19905;SDS011;10115;50.906;4.438;2024-03-08T08:00:25;26.97;;;24.50;;
19905;SDS011;10115;50.906;4.438;2024-03-08T08:02:52;28.67;;;26.03;;
19905;SDS011;10115;50.906;4.438;2024-03-08T08:05:18;27.53;;;24.93;;
19905;SDS011;10115;50.906;4.438;2024-03-08T08:07:44;25.70;;;23.40;;
19905;SDS011;10115;50.906;4.438;2024-03-08T08:10:11;27.30;;;24.70;;
19905;SDS011;10115;50.906;4.438;2024-03-08T08:12:46;24.67;;;22.57;;
19905;SDS011;10115;50.906;4.438;2024-03-08T08:15:16;26.47;;;24.00;;
19905;SDS011;10115;50.906;4.438;2024-03-08T08:17:43;26.20;;;23.70;;
19905;SDS011;10115;50.906;4.438;2024-03-08T08:20:09;26.03;;;23.67;;
19905;SDS011;10115;50.906;4.438;2024-03-08T08:22:37;26.77;;;24.23;;
19905;SDS011;10115;50.906;4.438;2024-03-08T08:25:05;26.93;;;23.60;;
19905;SDS011;10115;50.906;4.438;2024-03-08T08:27:30;28.10;;;25.50;;
19905;SDS011;10115;50.906;4.438;2024-03-08T08:29:56;27.90;;;25.03;;
19905;SDS011;10115;50.906;4.438;2024-03-08T08:32:22;27.43;;;25.00;;
19905;SDS011;10115;50.906;4.438;2024-03-08T08:34:48;26.37;;;23.97;;
19905;SDS011;10115;50.906;4.438;2024-03-08T08:37:13;28.17;;;25.03;;
19905;SDS011;10115;50.906;4.438;2024-03-08T08:39:39;28.60;;;25.77;;
19905;SDS011;10115;50.906;4.438;2024-03-08T08:42:05;27.83;;;24.93;;
19905;SDS011;10115;50.906;4.438;2024-03-08T08:44:34;26.23;;;23.63;;
19905;SDS011;10115;50.906;4.438;2024-03-08T08:47:00;26.20;;;23.40;;
19905;SDS011;10115;50.906;4.438;2024-03-08T08:49:26;25.13;;;22.80;;
19905;SDS011;10115;50.906;4.438;2024-03-08T08:51:52;24.37;;;22.50;;
19905;SDS011;10115;50.906;4.438;2024-03-08T08:54:18;24.83;;;22.43;;
19905;SDS011;10115;50.906;4.438;2024-03-08T08:56:45;26.17;;;23.60;;
19905;SDS011;10115;50.906;4.438;2024-03-08T08:59:12;25.20;;;22.97;;
19905;SDS011;10115;50.906;4.438;2024-03-08T09:01:44;27.70;;;24.97;;
19905;SDS011;10115;50.906;4.438;2024-03-08T09:04:12;24.40;;;21.97;;
19905;SDS011;10115;50.906;4.438;2024-03-08T09:06:38;23.93;;;21.80;;
19905;SDS011;10115;50.906;4.438;2024-03-08T09:09:06;23.13;;;21.30;;
19905;SDS011;10115;50.906;4.438;2024-03-08T09:11:36;25.13;;;22.57;;
19905;SDS011;10115;50.906;4.438;2024-03-08T09:14:06;25.20;;;22.80;;
19905;SDS011;10115;50.906;4.438;2024-03-08T09:16:32;24.97;;;22.43;;
19905;SDS011;10115;50.906;4.438;2024-03-08T09:18:58;25.60;;;23.37;;
19905;SDS011;10115;50.906;4.438;2024-03-08T09:21:24;23.73;;;21.70;;
19905;SDS011;10115;50.906;4.438;2024-03-08T09:23:51;26.20;;;23.97;;
19905;SDS011;10115;50.906;4.438;2024-03-08T09:26:17;25.23;;;22.93;;
19905;SDS011;10115;50.906;4.438;2024-03-08T09:28:43;24.33;;;21.97;;
19905;SDS011;10115;50.906;4.438;2024-03-08T09:31:08;23.50;;;21.37;;
19905;SDS011;10115;50.906;4.438;2024-03-08T09:33:36;23.43;;;21.43;;
19905;SDS011;10115;50.906;4.438;2024-03-08T09:36:02;22.20;;;20.13;;
19905;SDS011;10115;50.906;4.438;2024-03-08T09:38:29;24.57;;;22.13;;
19905;SDS011;10115;50.906;4.438;2024-03-08T09:40:54;24.20;;;21.83;;
19905;SDS011;10115;50.906;4.438;2024-03-08T09:43:22;23.10;;;20.90;;
19905;SDS011;10115;50.906;4.438;2024-03-08T09:45:49;23.87;;;21.37;;
19905;SDS011;10115;50.906;4.438;2024-03-08T09:48:16;23.80;;;21.63;;
19905;SDS011;10115;50.906;4.438;2024-03-08T09:50:44;23.20;;;21.03;;
19905;SDS011;10115;50.906;4.438;2024-03-08T09:53:13;23.90;;;21.60;;
19905;SDS011;10115;50.906;4.438;2024-03-08T09:55:39;24.77;;;21.83;;
19905;SDS011;10115;50.906;4.438;2024-03-08T09:58:07;23.10;;;20.93;;
19905;SDS011;10115;50.906;4.438;2024-03-08T10:00:42;23.57;;;21.30;;
19905;SDS011;10115;50.906;4.438;2024-03-08T10:03:08;21.67;;;19.53;;
19905;SDS011;10115;50.906;4.438;2024-03-08T10:05:35;24.73;;;22.40;;
19905;SDS011;10115;50.906;4.438;2024-03-08T10:08:01;21.17;;;19.47;;
19905;SDS011;10115;50.906;4.438;2024-03-08T10:10:28;22.00;;;20.17;;
19905;SDS011;10115;50.906;4.438;2024-03-08T10:12:54;24.60;;;21.47;;
19905;SDS011;10115;50.906;4.438;2024-03-08T10:15:20;23.43;;;21.40;;
19905;SDS011;10115;50.906;4.438;2024-03-08T10:17:46;24.40;;;22.10;;
19905;SDS011;10115;50.906;4.438;2024-03-08T10:20:15;24.20;;;21.80;;
19905;SDS011;10115;50.906;4.438;2024-03-08T10:22:42;22.13;;;20.13;;
19905;SDS011;10115;50.906;4.438;2024-03-08T10:25:12;21.10;;;19.07;;
19905;SDS011;10115;50.906;4.438;2024-03-08T10:27:38;22.97;;;20.67;;
19905;SDS011;10115;50.906;4.438;2024-03-08T10:30:11;23.53;;;21.20;;
19905;SDS011;10115;50.906;4.438;2024-03-08T10:32:39;23.07;;;20.23;;
19905;SDS011;10115;50.906;4.438;2024-03-08T10:35:06;21.63;;;19.60;;
19905;SDS011;10115;50.906;4.438;2024-03-08T10:37:33;22.57;;;19.80;;
19905;SDS011;10115;50.906;4.438;2024-03-08T10:40:09;21.23;;;19.33;;
19905;SDS011;10115;50.906;4.438;2024-03-08T10:42:41;25.40;;;21.63;;
19905;SDS011;10115;50.906;4.438;2024-03-08T10:51:06;24.20;;;18.47;;
19905;SDS011;10115;50.906;4.438;2024-03-08T10:53:33;22.63;;;20.60;;
19905;SDS011;10115;50.906;4.438;2024-03-08T10:56:00;22.47;;;20.23;;
19905;SDS011;10115;50.906;4.438;2024-03-08T10:58:27;21.60;;;19.47;;
19905;SDS011;10115;50.906;4.438;2024-03-08T11:00:54;23.50;;;20.77;;
19905;SDS011;10115;50.906;4.438;2024-03-08T11:03:54;21.80;;;19.77;;
19905;SDS011;10115;50.906;4.438;2024-03-08T11:07:03;22.63;;;20.80;;
19905;SDS011;10115;50.906;4.438;2024-03-08T11:15:16;21.33;;;19.23;;
19905;SDS011;10115;50.906;4.438;2024-03-08T11:17:44;22.70;;;20.53;;
19905;SDS011;10115;50.906;4.438;2024-03-08T11:20:13;22.43;;;20.37;;
19905;SDS011;10115;50.906;4.438;2024-03-08T11:25:41;20.00;;;18.40;;
19905;SDS011;10115;50.906;4.438;2024-03-08T11:31:27;19.93;;;17.93;;
19905;SDS011;10115;50.906;4.438;2024-03-08T11:33:29;21.03;;;19.00;;
19905;SDS011;10115;50.906;4.438;2024-03-08T11:36:03;20.17;;;18.27;;
19905;SDS011;10115;50.906;4.438;2024-03-08T11:38:43;23.23;;;21.20;;
19905;SDS011;10115;50.906;4.438;2024-03-08T11:41:17;21.40;;;19.33;;
19905;SDS011;10115;50.906;4.438;2024-03-08T11:43:44;21.63;;;19.63;;
19905;SDS011;10115;50.906;4.438;2024-03-08T11:46:11;21.73;;;19.83;;
19905;SDS011;10115;50.906;4.438;2024-03-08T11:48:40;22.10;;;19.47;;
19905;SDS011;10115;50.906;4.438;2024-03-08T11:51:07;23.20;;;20.60;;
19905;SDS011;10115;50.906;4.438;2024-03-08T11:53:37;21.37;;;19.57;;
19905;SDS011;10115;50.906;4.438;2024-03-08T11:56:10;20.23;;;18.47;;
19905;SDS011;10115;50.906;4.438;2024-03-08T11:58:37;21.23;;;19.27;;
19905;SDS011;10115;50.906;4.438;2024-03-08T12:01:07;21.20;;;19.13;;
19905;SDS011;10115;50.906;4.438;2024-03-08T12:03:40;20.03;;;18.47;;
19905;SDS011;10115;50.906;4.438;2024-03-08T12:06:09;21.67;;;19.57;;
19905;SDS011;10115;50.906;4.438;2024-03-08T12:08:36;19.97;;;18.07;;
19905;SDS011;10115;50.906;4.438;2024-03-08T12:11:03;21.80;;;19.67;;
19905;SDS011;10115;50.906;4.438;2024-03-08T12:13:30;19.13;;;17.57;;
19905;SDS011;10115;50.906;4.438;2024-03-08T12:16:03;21.90;;;19.80;;
19905;SDS011;10115;50.906;4.438;2024-03-08T12:18:32;21.00;;;18.97;;
19905;SDS011;10115;50.906;4.438;2024-03-08T12:21:06;21.13;;;19.03;;
19905;SDS011;10115;50.906;4.438;2024-03-08T12:23:36;18.80;;;17.23;;
19905;SDS011;10115;50.906;4.438;2024-03-08T12:26:13;18.07;;;16.57;;
19905;SDS011;10115;50.906;4.438;2024-03-08T12:28:44;20.67;;;18.60;;
19905;SDS011;10115;50.906;4.438;2024-03-08T12:31:13;20.07;;;18.00;;
19905;SDS011;10115;50.906;4.438;2024-03-08T12:36:24;21.27;;;19.37;;
19905;SDS011;10115;50.906;4.438;2024-03-08T12:38:50;22.07;;;19.00;;
19905;SDS011;10115;50.906;4.438;2024-03-08T12:41:19;20.50;;;18.57;;
19905;SDS011;10115;50.906;4.438;2024-03-08T12:43:47;19.10;;;17.33;;
19905;SDS011;10115;50.906;4.438;2024-03-08T12:46:20;25.43;;;19.97;;
19905;SDS011;10115;50.906;4.438;2024-03-08T12:48:46;19.30;;;17.67;;
19905;SDS011;10115;50.906;4.438;2024-03-08T12:51:12;20.23;;;18.07;;
19905;SDS011;10115;50.906;4.438;2024-03-08T12:53:45;20.20;;;18.27;;
19905;SDS011;10115;50.906;4.438;2024-03-08T12:56:12;19.47;;;17.70;;
19905;SDS011;10115;50.906;4.438;2024-03-08T12:58:39;23.00;;;18.77;;
19905;SDS011;10115;50.906;4.438;2024-03-08T13:01:05;20.27;;;18.10;;
19905;SDS011;10115;50.906;4.438;2024-03-08T13:03:32;20.83;;;17.97;;
19905;SDS011;10115;50.906;4.438;2024-03-08T13:06:00;20.60;;;18.70;;
19905;SDS011;10115;50.906;4.438;2024-03-08T13:08:29;19.33;;;17.63;;
19905;SDS011;10115;50.906;4.438;2024-03-08T13:10:56;20.10;;;18.27;;
19905;SDS011;10115;50.906;4.438;2024-03-08T13:13:22;21.03;;;19.10;;
19905;SDS011;10115;50.906;4.438;2024-03-08T13:15:47;18.90;;;17.03;;
19905;SDS011;10115;50.906;4.438;2024-03-08T13:18:14;19.63;;;17.77;;
19905;SDS011;10115;50.906;4.438;2024-03-08T13:20:41;19.43;;;17.60;;
19905;SDS011;10115;50.906;4.438;2024-03-08T13:23:09;18.30;;;16.80;;
19905;SDS011;10115;50.906;4.438;2024-03-08T13:25:34;20.90;;;18.33;;
19905;SDS011;10115;50.906;4.438;2024-03-08T13:28:03;19.40;;;17.40;;
19905;SDS011;10115;50.906;4.438;2024-03-08T13:30:29;18.53;;;17.00;;
19905;SDS011;10115;50.906;4.438;2024-03-08T13:32:55;18.97;;;17.43;;
19905;SDS011;10115;50.906;4.438;2024-03-08T13:35:21;23.20;;;18.57;;
19905;SDS011;10115;50.906;4.438;2024-03-08T13:37:52;19.70;;;17.83;;
19905;SDS011;10115;50.906;4.438;2024-03-08T13:40:18;18.93;;;17.23;;
19905;SDS011;10115;50.906;4.438;2024-03-08T13:42:45;19.73;;;17.70;;
19905;SDS011;10115;50.906;4.438;2024-03-08T13:45:13;20.33;;;18.40;;
19905;SDS011;10115;50.906;4.438;2024-03-08T13:47:42;21.00;;;18.50;;
19905;SDS011;10115;50.906;4.438;2024-03-08T13:50:08;19.23;;;17.40;;
19905;SDS011;10115;50.906;4.438;2024-03-08T13:52:38;18.87;;;17.13;;
19905;SDS011;10115;50.906;4.438;2024-03-08T13:55:05;18.10;;;16.63;;
19905;SDS011;10115;50.906;4.438;2024-03-08T13:57:34;19.40;;;17.40;;
19905;SDS011;10115;50.906;4.438;2024-03-08T14:00:00;18.93;;;17.03;;
19905;SDS011;10115;50.906;4.438;2024-03-08T14:02:26;19.57;;;16.77;;
19905;SDS011;10115;50.906;4.438;2024-03-08T14:04:53;17.23;;;15.53;;
19905;SDS011;10115;50.906;4.438;2024-03-08T14:07:22;19.10;;;17.17;;
19905;SDS011;10115;50.906;4.438;2024-03-08T14:09:51;18.23;;;16.37;;
19905;SDS011;10115;50.906;4.438;2024-03-08T14:12:18;16.63;;;15.13;;
19905;SDS011;10115;50.906;4.438;2024-03-08T14:14:44;18.00;;;16.23;;
19905;SDS011;10115;50.906;4.438;2024-03-08T14:17:09;18.53;;;16.60;;
19905;SDS011;10115;50.906;4.438;2024-03-08T14:19:36;18.37;;;15.43;;
19905;SDS011;10115;50.906;4.438;2024-03-08T14:22:04;16.53;;;15.03;;
19905;SDS011;10115;50.906;4.438;2024-03-08T14:24:30;18.60;;;16.60;;
19905;SDS011;10115;50.906;4.438;2024-03-08T14:26:56;17.83;;;16.03;;
19905;SDS011;10115;50.906;4.438;2024-03-08T14:29:24;17.50;;;15.53;;
19905;SDS011;10115;50.906;4.438;2024-03-08T14:31:57;17.47;;;14.63;;
19905;SDS011;10115;50.906;4.438;2024-03-08T14:34:27;18.50;;;15.10;;
19905;SDS011;10115;50.906;4.438;2024-03-08T14:36:54;24.00;;;15.63;;
19905;SDS011;10115;50.906;4.438;2024-03-08T14:39:20;19.97;;;14.93;;
19905;SDS011;10115;50.906;4.438;2024-03-08T14:41:50;16.60;;;14.93;;
19905;SDS011;10115;50.906;4.438;2024-03-08T14:44:18;17.27;;;15.37;;